Time;durP1;ratioP1;P1;durP2;ratioP2;P2;SDS_P1;SDS_P2;PMS_P1;PMS_P2;Temp;Humidity;BMP_temperature;BMP_pressure;BME280_temperature;BME280_humidity;BME280_pressure;Samples;Min_cycle;Max_cycle;Signal;HPM_P1;HPM_P2
2024/03/05 00:00:31;;;;;;;28.30;13.90;;;10.30;99.90;;;;;;6156632;23;20804;-62
2024/03/05 00:02:58;;;;;;;22.93;14.17;;;10.30;99.90;;;;;;6156588;23;20509;-63
2024/03/05 00:05:25;;;;;;;24.03;14.90;;;10.20;99.90;;;;;;6157096;23;20478;-63
2024/03/05 00:07:52;;;;;;;19.30;11.63;;;10.10;99.90;;;;;;6157381;23;20398;-64
2024/03/05 00:10:20;;;;;;;20.70;13.90;;;10.20;99.90;;;;;;6156781;23;20410;-65
2024/03/05 00:12:47;;;;;;;19.73;13.37;;;10.20;99.90;;;;;;6155931;23;20505;-63
2024/03/05 00:15:15;;;;;;;22.17;14.90;;;10.10;99.90;;;;;;6155303;23;20489;-61
2024/03/05 00:17:44;;;;;;;23.70;14.00;;;10.10;99.90;;;;;;6156613;23;20438;-64
2024/03/05 00:20:18;;;;;;;30.13;13.17;;;10.10;99.90;;;;;;6155197;23;20979;-63
2024/03/05 00:22:45;;;;;;;21.77;15.43;;;10.00;99.90;;;;;;6155267;23;20541;-63
2024/03/05 00:25:12;;;;;;;24.93;13.30;;;10.00;99.90;;;;;;6155429;23;20433;-63
2024/03/05 00:27:39;;;;;;;22.07;13.33;;;10.00;99.90;;;;;;6155034;23;20485;-64
2024/03/05 00:30:08;;;;;;;25.93;14.10;;;10.00;99.90;;;;;;6155333;23;20485;-64
2024/03/05 00:32:35;;;;;;;23.33;13.40;;;10.00;99.90;;;;;;6154712;23;20430;-63
2024/03/05 00:35:04;;;;;;;17.77;12.93;;;10.00;99.90;;;;;;6154911;23;20967;-63
2024/03/05 00:37:30;;;;;;;24.77;12.73;;;10.00;99.90;;;;;;6155151;23;20430;-63
2024/03/05 00:39:58;;;;;;;20.37;13.27;;;9.90;99.90;;;;;;6155047;23;20488;-64
2024/03/05 00:42:25;;;;;;;25.87;14.77;;;9.80;99.90;;;;;;6155275;23;20434;-63
2024/03/05 00:44:51;;;;;;;22.20;12.30;;;9.80;99.90;;;;;;6155607;23;20477;-63
2024/03/05 00:47:18;;;;;;;19.73;13.43;;;9.70;99.90;;;;;;6155283;23;20434;-62
2024/03/05 00:49:45;;;;;;;20.37;12.47;;;9.70;99.90;;;;;;6155150;23;20819;-63
2024/03/05 00:52:14;;;;;;;26.37;12.27;;;9.70;99.90;;;;;;6156163;23;20422;-62
2024/03/05 00:54:41;;;;;;;20.43;11.90;;;9.60;99.90;;;;;;6156285;23;20410;-64
2024/03/05 00:57:07;;;;;;;24.00;12.60;;;9.60;99.90;;;;;;6154992;23;20490;-63
2024/03/05 00:59:34;;;;;;;19.43;12.20;;;9.60;99.90;;;;;;6155525;23;20548;-63
2024/03/05 01:02:01;;;;;;;24.20;12.17;;;9.60;99.90;;;;;;6154608;23;20506;-64
2024/03/05 01:04:29;;;;;;;21.97;11.23;;;9.50;99.90;;;;;;6155056;23;20948;-63
2024/03/05 01:06:57;;;;;;;24.47;12.70;;;9.50;99.90;;;;;;6155708;23;20406;-63
2024/03/05 01:09:25;;;;;;;21.30;11.03;;;9.50;99.90;;;;;;6155202;23;20923;-64
2024/03/05 01:11:53;;;;;;;20.73;11.53;;;9.40;99.90;;;;;;6154716;23;20434;-61
2024/03/05 01:14:20;;;;;;;19.43;11.57;;;9.50;99.90;;;;;;6155476;23;20402;-64
2024/03/05 01:16:47;;;;;;;20.07;12.00;;;9.40;99.90;;;;;;6155282;23;20852;-64
2024/03/05 01:19:14;;;;;;;20.33;10.73;;;9.40;99.90;;;;;;6155351;23;20944;-63
2024/03/05 01:21:42;;;;;;;22.63;13.33;;;9.40;99.90;;;;;;6154579;23;20517;-61
2024/03/05 01:24:09;;;;;;;20.70;11.20;;;9.40;99.90;;;;;;6155227;23;20406;-64
2024/03/05 01:26:38;;;;;;;17.57;11.57;;;9.40;99.90;;;;;;6155000;23;20402;-63
2024/03/05 01:29:05;;;;;;;17.60;11.50;;;9.40;99.90;;;;;;6157123;23;20398;-61
2024/03/05 01:31:32;;;;;;;21.13;11.93;;;9.30;99.90;;;;;;6154949;23;20909;-62
2024/03/05 01:33:59;;;;;;;24.43;11.67;;;9.30;99.90;;;;;;6155601;23;20987;-63
2024/03/05 01:36:26;;;;;;;29.20;14.00;;;9.30;99.90;;;;;;6155254;23;20540;-63
2024/03/05 01:38:53;;;;;;;19.77;11.27;;;9.20;99.90;;;;;;6155371;23;20434;-63
2024/03/05 01:41:19;;;;;;;16.07;10.67;;;9.10;99.90;;;;;;6154944;23;20430;-62
2024/03/05 01:43:48;;;;;;;14.30;9.23;;;9.10;99.90;;;;;;6154903;23;20722;-65
2024/03/05 01:46:17;;;;;;;22.90;11.47;;;8.90;99.90;;;;;;6154771;23;20410;-63
2024/03/05 01:48:44;;;;;;;19.97;11.90;;;9.00;99.90;;;;;;6154667;23;20403;-63
2024/03/05 01:51:14;;;;;;;32.30;11.47;;;9.00;99.90;;;;;;6154773;23;20888;-64
2024/03/05 01:53:43;;;;;;;21.30;11.53;;;8.90;99.90;;;;;;6154936;23;20418;-62
2024/03/05 01:56:11;;;;;;;17.27;11.40;;;8.90;99.90;;;;;;6154579;23;20433;-62
2024/03/05 01:58:40;;;;;;;15.93;10.90;;;8.90;99.90;;;;;;6155079;23;20506;-63
2024/03/05 02:01:09;;;;;;;19.80;11.67;;;8.90;99.90;;;;;;6154837;23;20398;-60
2024/03/05 02:03:36;;;;;;;17.47;10.10;;;8.90;99.90;;;;;;6155256;23;21002;-63
2024/03/05 02:06:06;;;;;;;23.30;12.30;;;8.90;99.90;;;;;;6155425;23;20402;-65
2024/03/05 02:08:34;;;;;;;18.10;12.33;;;8.80;99.90;;;;;;6154225;23;20399;-63
2024/03/05 02:11:01;;;;;;;15.20;9.93;;;8.80;99.90;;;;;;6154958;23;20493;-63
2024/03/05 02:13:30;;;;;;;24.10;12.37;;;8.80;99.90;;;;;;6154260;23;20462;-63
2024/03/05 02:15:56;;;;;;;18.73;12.43;;;8.70;99.90;;;;;;6154318;23;20757;-63
2024/03/05 02:18:25;;;;;;;25.47;12.80;;;8.70;99.90;;;;;;6154124;23;21042;-63
2024/03/05 02:20:52;;;;;;;17.23;11.30;;;8.70;99.90;;;;;;6154173;23;20410;-62
2024/03/05 02:23:21;;;;;;;18.43;10.93;;;8.70;99.90;;;;;;6153764;23;20458;-63
2024/03/05 02:25:49;;;;;;;22.90;13.10;;;8.70;99.90;;;;;;6154494;23;20461;-63
2024/03/05 02:28:17;;;;;;;22.97;12.90;;;8.60;99.90;;;;;;6154466;23;20810;-62
2024/03/05 02:30:46;;;;;;;24.13;13.43;;;8.60;99.90;;;;;;6154337;23;20472;-60
2024/03/05 02:33:14;;;;;;;19.00;12.50;;;8.60;99.90;;;;;;6153567;23;20460;-62
2024/03/05 02:35:40;;;;;;;20.40;11.50;;;8.60;99.90;;;;;;6154474;23;20410;-63
2024/03/05 02:38:07;;;;;;;21.77;14.40;;;8.60;99.90;;;;;;6155242;23;20906;-62
2024/03/05 02:40:36;;;;;;;23.87;13.33;;;8.60;99.90;;;;;;6155792;23;20502;-62
2024/03/05 02:43:02;;;;;;;22.30;12.23;;;8.50;99.90;;;;;;6155029;23;20457;-62
2024/03/05 02:45:29;;;;;;;20.17;12.43;;;8.50;99.90;;;;;;6154219;23;20410;-64
2024/03/05 02:48:03;;;;;;;23.77;13.40;;;8.40;99.90;;;;;;6154276;23;20731;-65
2024/03/05 02:50:29;;;;;;;17.23;11.43;;;8.40;99.90;;;;;;6154351;23;20390;-63
2024/03/05 02:52:57;;;;;;;23.13;12.10;;;8.40;99.90;;;;;;6153860;23;20432;-61
2024/03/05 02:55:24;;;;;;;20.67;12.03;;;8.30;99.90;;;;;;6154444;23;20402;-64
2024/03/05 02:57:52;;;;;;;18.73;11.27;;;8.30;99.90;;;;;;6155284;23;20955;-64
2024/03/05 03:00:19;;;;;;;24.17;12.80;;;8.30;99.90;;;;;;6153702;23;21029;-64
2024/03/05 03:02:48;;;;;;;18.00;11.73;;;8.30;99.90;;;;;;6154189;23;20754;-65
2024/03/05 03:05:16;;;;;;;20.60;11.83;;;8.20;99.90;;;;;;6156348;23;20587;-63
2024/03/05 03:07:43;;;;;;;20.67;13.57;;;8.20;99.90;;;;;;6155712;23;20405;-62
2024/03/05 03:10:11;;;;;;;18.50;11.37;;;8.10;99.90;;;;;;6156297;23;20398;-63
2024/03/05 03:12:38;;;;;;;24.60;13.60;;;8.00;99.90;;;;;;6155402;23;20428;-63
2024/03/05 03:15:07;;;;;;;17.50;10.73;;;8.00;99.90;;;;;;6155972;23;20509;-63
2024/03/05 03:17:34;;;;;;;22.53;13.53;;;8.00;99.90;;;;;;6156499;23;20752;-62
2024/03/05 03:20:02;;;;;;;24.33;12.10;;;7.90;99.90;;;;;;6155514;23;20466;-62
2024/03/05 03:22:30;;;;;;;19.03;11.53;;;7.80;99.90;;;;;;6155298;23;20426;-63
2024/03/05 03:24:58;;;;;;;30.33;14.40;;;7.70;99.90;;;;;;6155707;23;20948;-63
2024/03/05 03:27:25;;;;;;;29.77;13.40;;;7.70;99.90;;;;;;6156157;23;20402;-63
2024/03/05 03:29:52;;;;;;;21.47;12.20;;;7.60;99.90;;;;;;6156637;23;20441;-63
2024/03/05 03:32:20;;;;;;;20.70;11.30;;;7.60;99.90;;;;;;6155271;23;20450;-63
2024/03/05 03:34:47;;;;;;;22.43;12.70;;;7.50;99.90;;;;;;6155684;23;20489;-63
2024/03/05 03:37:14;;;;;;;25.83;13.97;;;7.40;99.90;;;;;;6155635;23;20409;-64
2024/03/05 03:39:43;;;;;;;16.63;11.63;;;7.30;99.90;;;;;;6155660;23;20438;-63
2024/03/05 03:42:10;;;;;;;19.00;11.27;;;7.30;99.90;;;;;;6155552;23;20499;-63
2024/03/05 03:44:37;;;;;;;20.07;11.30;;;7.40;99.90;;;;;;6155576;23;20497;-64
2024/03/05 03:47:04;;;;;;;23.53;11.60;;;7.30;99.90;;;;;;6155362;23;20402;-63
2024/03/05 03:49:33;;;;;;;25.27;12.50;;;7.40;99.90;;;;;;6155557;23;20402;-63
2024/03/05 03:52:00;;;;;;;19.13;12.30;;;7.40;99.90;;;;;;6155005;23;20505;-62
2024/03/05 03:54:27;;;;;;;22.87;13.00;;;7.40;99.90;;;;;;6155596;23;20481;-63
2024/03/05 03:56:54;;;;;;;15.07;10.33;;;7.50;99.90;;;;;;6155762;23;20402;-64
2024/03/05 03:59:21;;;;;;;23.40;12.07;;;7.40;99.90;;;;;;6155163;23;20473;-62
2024/03/05 04:01:48;;;;;;;15.10;10.13;;;7.40;99.90;;;;;;6155431;23;20477;-63
2024/03/05 04:04:15;;;;;;;17.30;10.40;;;7.30;99.90;;;;;;6156491;23;20443;-63
2024/03/05 04:06:46;;;;;;;20.63;11.33;;;7.30;99.90;;;;;;6155568;23;20402;-62
2024/03/05 04:09:13;;;;;;;23.37;11.40;;;7.30;99.90;;;;;;6155694;23;20449;-61
2024/03/05 04:11:41;;;;;;;22.07;11.10;;;7.30;99.90;;;;;;6155363;23;20426;-63
2024/03/05 04:14:08;;;;;;;15.43;10.23;;;7.30;99.90;;;;;;6154814;23;20493;-64
2024/03/05 04:16:35;;;;;;;19.43;11.17;;;7.30;99.90;;;;;;6155974;23;20485;-62
2024/03/05 04:19:02;;;;;;;26.80;11.60;;;7.30;99.90;;;;;;6155677;23;20442;-63
2024/03/05 04:21:28;;;;;;;17.37;9.90;;;7.30;99.90;;;;;;6155000;23;20792;-63
2024/03/05 04:23:57;;;;;;;20.00;10.53;;;7.30;99.90;;;;;;6155660;23;20780;-63
2024/03/05 04:26:26;;;;;;;19.00;10.37;;;7.30;99.90;;;;;;6155458;23;20719;-64
2024/03/05 04:28:54;;;;;;;23.63;11.93;;;7.20;99.90;;;;;;6155478;23;20421;-63
2024/03/05 04:31:23;;;;;;;13.97;10.60;;;7.20;99.90;;;;;;6155161;23;20449;-64
2024/03/05 04:33:52;;;;;;;20.97;10.37;;;7.10;99.90;;;;;;6155333;23;20411;-62
2024/03/05 04:36:20;;;;;;;21.13;11.10;;;7.00;99.90;;;;;;6155541;23;20406;-63
2024/03/05 04:38:47;;;;;;;16.93;9.23;;;7.00;99.90;;;;;;6155442;23;20438;-64
2024/03/05 04:41:15;;;;;;;19.57;11.00;;;7.00;99.90;;;;;;6157070;23;20409;-62
2024/03/05 04:43:42;;;;;;;22.77;11.50;;;7.00;99.90;;;;;;6155309;23;20402;-63
2024/03/05 04:46:11;;;;;;;20.13;10.87;;;6.90;99.90;;;;;;6154685;23;20501;-62
2024/03/05 04:48:39;;;;;;;19.27;10.00;;;6.90;99.90;;;;;;6155689;23;20406;-64
2024/03/05 04:51:09;;;;;;;20.43;12.10;;;6.80;99.90;;;;;;6157218;23;20437;-65
2024/03/05 04:53:36;;;;;;;15.50;10.93;;;6.80;99.90;;;;;;6155008;23;20426;-64
2024/03/05 04:56:03;;;;;;;25.30;12.00;;;6.70;99.90;;;;;;6155303;23;20759;-62
2024/03/05 04:58:31;;;;;;;25.00;9.80;;;6.70;99.90;;;;;;6154587;23;20430;-63
2024/03/05 05:00:58;;;;;;;18.87;11.00;;;6.70;99.90;;;;;;6155192;23;20862;-61
2024/03/05 05:03:26;;;;;;;24.07;12.47;;;6.60;99.90;;;;;;6154399;23;20461;-65
2024/03/05 05:05:54;;;;;;;18.77;11.70;;;6.60;99.90;;;;;;6154776;23;20409;-62
2024/03/05 05:08:21;;;;;;;16.77;9.67;;;6.60;99.90;;;;;;6155011;23;20406;-62
2024/03/05 05:10:48;;;;;;;17.90;9.60;;;6.50;99.90;;;;;;6155005;23;20398;-64
2024/03/05 05:13:15;;;;;;;19.00;10.77;;;6.50;99.90;;;;;;6154786;23;20482;-64
2024/03/05 05:15:43;;;;;;;25.43;11.00;;;6.50;99.90;;;;;;6155493;23;20489;-63
2024/03/05 05:18:10;;;;;;;19.23;11.60;;;6.40;99.90;;;;;;6155540;23;20498;-63
2024/03/05 05:20:37;;;;;;;17.90;11.10;;;6.40;99.90;;;;;;6155630;23;20434;-61
2024/03/05 05:23:04;;;;;;;17.90;9.57;;;6.40;99.90;;;;;;6155356;23;20936;-63
2024/03/05 05:25:32;;;;;;;18.83;9.90;;;6.40;99.90;;;;;;6155781;23;20407;-65
2024/03/05 05:27:59;;;;;;;18.63;10.47;;;6.50;99.90;;;;;;6155345;23;20406;-62
2024/03/05 05:30:26;;;;;;;14.63;9.27;;;6.50;99.90;;;;;;6154632;23;20900;-63
2024/03/05 05:32:55;;;;;;;13.50;9.40;;;6.50;99.90;;;;;;6154338;23;20876;-62
2024/03/05 05:35:22;;;;;;;17.80;10.47;;;6.40;99.90;;;;;;6154839;23;20402;-64
2024/03/05 05:37:49;;;;;;;12.10;9.47;;;6.40;99.90;;;;;;6155024;23;20944;-63
2024/03/05 05:40:17;;;;;;;18.70;11.30;;;6.40;99.90;;;;;;6154794;23;20466;-63
2024/03/05 05:42:48;;;;;;;15.93;9.40;;;6.40;99.90;;;;;;6154881;23;20737;-63
2024/03/05 05:45:15;;;;;;;15.90;9.70;;;6.30;99.90;;;;;;6156979;23;20410;-63
2024/03/05 05:47:50;;;;;;;20.13;8.80;;;6.30;99.90;;;;;;6156924;23;20437;-63
2024/03/05 05:50:19;;;;;;;18.83;10.07;;;6.40;99.90;;;;;;6154733;23;20416;-62
2024/03/05 05:52:48;;;;;;;17.90;9.97;;;6.30;99.90;;;;;;6154802;23;20422;-65
2024/03/05 05:55:15;;;;;;;19.20;12.43;;;6.40;99.90;;;;;;6154493;23;20413;-61
2024/03/05 05:57:46;;;;;;;22.10;10.20;;;6.30;99.90;;;;;;6154824;23;20402;-62
2024/03/05 06:00:22;;;;;;;17.70;10.40;;;6.30;99.90;;;;;;6154750;23;20515;-63
2024/03/05 06:02:54;;;;;;;24.73;11.90;;;6.20;99.90;;;;;;6154582;23;20484;-64
2024/03/05 06:05:25;;;;;;;13.90;9.70;;;6.20;99.90;;;;;;6155023;23;20391;-63
2024/03/05 06:07:52;;;;;;;15.07;8.90;;;6.10;99.90;;;;;;6154817;23;20386;-62
2024/03/05 06:10:19;;;;;;;24.10;10.53;;;6.10;99.90;;;;;;6154990;23;20429;-61
2024/03/05 06:12:46;;;;;;;16.50;9.83;;;6.00;99.90;;;;;;6154163;23;20436;-64
2024/03/05 06:15:13;;;;;;;13.20;9.93;;;6.10;99.90;;;;;;6154655;23;20512;-62
2024/03/05 06:17:41;;;;;;;18.70;11.00;;;6.00;99.90;;;;;;6154694;23;20659;-63
2024/03/05 06:20:10;;;;;;;22.60;11.10;;;6.00;99.90;;;;;;6154695;23;20465;-59
2024/03/05 06:22:39;;;;;;;21.40;9.90;;;6.00;99.90;;;;;;6154682;23;20429;-62
2024/03/05 06:25:08;;;;;;;31.63;10.83;;;6.00;99.90;;;;;;6154303;23;20975;-62
2024/03/05 06:27:36;;;;;;;23.47;10.87;;;6.00;99.90;;;;;;6154083;23;20430;-61
2024/03/05 06:30:04;;;;;;;20.23;10.20;;;6.00;99.90;;;;;;6154292;23;20435;-62
2024/03/05 06:32:31;;;;;;;23.03;13.47;;;6.00;99.90;;;;;;6154887;23;20635;-62
2024/03/05 06:34:58;;;;;;;20.83;9.90;;;6.00;99.90;;;;;;6154886;23;20461;-62
2024/03/05 06:37:25;;;;;;;16.57;10.50;;;6.00;99.90;;;;;;6153689;23;20437;-62
2024/03/05 06:39:53;;;;;;;22.00;9.10;;;6.00;99.90;;;;;;6154091;23;20442;-62
2024/03/05 06:42:23;;;;;;;25.80;11.97;;;5.90;99.90;;;;;;6154153;23;20782;-63
2024/03/05 06:44:54;;;;;;;14.30;9.87;;;6.00;99.90;;;;;;6153981;23;20790;-61
2024/03/05 06:47:27;;;;;;;28.27;11.63;;;6.00;99.90;;;;;;6154139;23;20422;-63
2024/03/05 06:49:57;;;;;;;18.43;10.87;;;6.10;99.90;;;;;;6154080;23;20390;-62
2024/03/05 06:57:54;;;;;;;17.13;10.50;;;6.10;99.90;;;;;;6154126;23;20374;-63
2024/03/05 07:00:21;;;;;;;20.83;10.37;;;6.10;99.90;;;;;;6154358;23;20533;-62
2024/03/05 07:02:48;;;;;;;21.10;10.10;;;6.10;99.90;;;;;;6153757;23;20836;-60
2024/03/05 07:05:15;;;;;;;21.17;10.50;;;6.20;99.90;;;;;;6154220;23;20402;-63
2024/03/05 07:07:42;;;;;;;23.23;9.90;;;6.20;99.90;;;;;;6154108;23;20406;-64
2024/03/05 07:10:14;;;;;;;25.33;11.47;;;6.20;99.90;;;;;;6157876;23;20473;-65
2024/03/05 07:12:43;;;;;;;22.20;10.70;;;6.20;99.90;;;;;;6153516;23;20505;-63
2024/03/05 07:15:14;;;;;;;19.87;9.50;;;6.10;99.90;;;;;;6153687;23;20410;-63
2024/03/05 07:17:42;;;;;;;16.70;9.23;;;6.20;99.90;;;;;;6153955;23;20453;-64
2024/03/05 07:20:18;;;;;;;21.23;10.77;;;6.20;99.90;;;;;;6154145;23;20449;-63
2024/03/05 07:22:45;;;;;;;24.80;10.90;;;6.20;99.90;;;;;;6153753;23;20426;-62
2024/03/05 07:25:15;;;;;;;23.30;10.60;;;6.10;99.90;;;;;;6153662;23;20947;-63
2024/03/05 07:27:43;;;;;;;20.87;9.57;;;6.00;99.90;;;;;;6153911;23;20445;-65
2024/03/05 07:30:15;;;;;;;23.63;11.17;;;6.20;99.90;;;;;;6153363;23;20963;-56
2024/03/05 07:32:43;;;;;;;16.40;8.80;;;6.30;99.90;;;;;;6153517;23;20423;-57
2024/03/05 07:35:10;;;;;;;18.77;10.00;;;6.30;99.90;;;;;;6153786;23;20405;-54
2024/03/05 07:37:37;;;;;;;17.10;10.43;;;6.40;99.90;;;;;;6153894;23;20920;-55
2024/03/05 07:40:15;;;;;;;11.40;7.80;;;6.40;99.90;;;;;;6154216;23;20520;-54
2024/03/05 07:42:45;;;;;;;18.23;9.63;;;6.40;99.90;;;;;;6153635;23;20982;-55
2024/03/05 07:45:12;;;;;;;19.03;10.00;;;6.40;99.90;;;;;;6153946;23;20441;-53
2024/03/05 07:47:40;;;;;;;19.10;10.87;;;6.40;99.90;;;;;;6153668;23;20411;-54
2024/03/05 07:50:09;;;;;;;17.53;9.37;;;6.40;99.90;;;;;;6155353;23;20394;-50
2024/03/05 07:52:36;;;;;;;21.63;9.03;;;6.40;99.90;;;;;;6152874;23;20426;-53
2024/03/05 07:55:04;;;;;;;24.20;9.30;;;6.50;99.90;;;;;;6154886;23;20781;-55
2024/03/05 07:57:31;;;;;;;22.00;11.33;;;6.60;99.90;;;;;;6157403;23;20417;-57
2024/03/05 08:00:00;;;;;;;21.23;9.80;;;6.60;99.90;;;;;;6155717;23;21026;-52
2024/03/05 08:02:27;;;;;;;14.10;9.77;;;6.70;99.90;;;;;;6154918;23;20456;-51
2024/03/05 08:04:53;;;;;;;23.07;9.50;;;6.70;99.90;;;;;;6156335;23;20712;-52
2024/03/05 08:07:20;;;;;;;17.43;10.60;;;6.80;99.90;;;;;;6155068;23;20412;-52
2024/03/05 08:09:47;;;;;;;18.13;10.43;;;6.80;99.90;;;;;;6155185;23;20430;-55
2024/03/05 08:12:14;;;;;;;15.43;10.30;;;6.90;99.90;;;;;;6154892;23;20429;-52
2024/03/05 08:14:41;;;;;;;16.97;9.23;;;7.00;99.90;;;;;;6155598;23;20493;-56
2024/03/05 08:17:09;;;;;;;25.13;10.30;;;6.90;99.90;;;;;;6154930;23;20746;-54
2024/03/05 08:19:36;;;;;;;30.13;12.30;;;7.00;99.90;;;;;;6154618;23;20413;-65
2024/03/05 08:22:05;;;;;;;24.20;9.60;;;7.10;99.90;;;;;;6154497;23;20509;-63
2024/03/05 08:24:32;;;;;;;23.60;10.40;;;7.10;99.90;;;;;;6154769;23;20406;-62
2024/03/05 08:26:59;;;;;;;17.77;10.57;;;7.10;99.90;;;;;;6155710;23;20417;-62
2024/03/05 08:29:26;;;;;;;18.47;10.03;;;7.20;99.90;;;;;;6154976;23;20485;-64
2024/03/05 08:31:53;;;;;;;15.07;9.47;;;7.20;99.90;;;;;;6153772;23;20422;-62
2024/03/05 08:34:23;;;;;;;14.87;9.43;;;7.20;99.90;;;;;;6155553;23;20408;-63
2024/03/05 08:36:50;;;;;;;22.00;10.33;;;7.20;99.90;;;;;;6155453;23;20402;-64
2024/03/05 08:39:18;;;;;;;15.67;10.30;;;7.20;99.90;;;;;;6154951;23;20434;-63
2024/03/05 08:41:46;;;;;;;13.60;10.27;;;7.30;99.90;;;;;;6154427;23;20521;-64
2024/03/05 08:44:15;;;;;;;16.93;9.90;;;7.40;99.90;;;;;;6154321;23;20490;-62
2024/03/05 08:46:42;;;;;;;18.87;11.67;;;7.50;99.90;;;;;;6155518;23;20390;-63
2024/03/05 08:49:08;;;;;;;19.80;10.53;;;7.50;99.90;;;;;;6155461;23;20792;-62
2024/03/05 08:51:38;;;;;;;22.10;11.00;;;7.50;99.90;;;;;;6154799;23;20398;-63
2024/03/05 08:54:08;;;;;;;21.20;11.40;;;7.60;99.90;;;;;;6155017;23;20407;-64
2024/03/05 08:56:35;;;;;;;13.23;9.17;;;7.60;99.90;;;;;;6155200;23;20393;-63
2024/03/05 08:59:03;;;;;;;14.97;9.47;;;7.80;99.90;;;;;;6155410;23;20413;-63
2024/03/05 09:01:33;;;;;;;19.63;11.10;;;8.50;99.90;;;;;;6154315;23;20438;-63
2024/03/05 09:04:00;;;;;;;17.43;9.80;;;9.40;99.90;;;;;;6154430;23;20499;-62
2024/03/05 09:06:28;;;;;;;15.33;8.90;;;10.60;99.90;;;;;;6155923;23;20421;-64
2024/03/05 09:08:56;;;;;;;15.13;8.60;;;11.60;99.90;;;;;;6155887;23;20406;-64
2024/03/05 09:11:23;;;;;;;14.80;8.77;;;12.70;99.90;;;;;;6157629;23;20403;-64
2024/03/05 09:13:50;;;;;;;18.27;10.20;;;13.60;99.90;;;;;;6156653;23;20787;-64
2024/03/05 09:16:17;;;;;;;18.90;9.60;;;14.40;99.90;;;;;;6155841;23;20494;-63
2024/03/05 09:18:44;;;;;;;22.60;10.97;;;15.20;99.90;;;;;;6155434;23;20805;-64
2024/03/05 09:21:11;;;;;;;18.10;10.57;;;15.80;99.30;;;;;;6154796;23;20962;-64
2024/03/05 09:23:39;;;;;;;16.87;11.70;;;16.40;95.10;;;;;;6154657;23;20427;-64
2024/03/05 09:26:08;;;;;;;16.67;10.03;;;16.80;92.50;;;;;;6154963;23;20410;-64
2024/03/05 09:28:35;;;;;;;16.07;10.70;;;17.20;91.30;;;;;;6154548;23;20406;-63
2024/03/05 09:31:02;;;;;;;15.30;9.70;;;17.30;86.70;;;;;;6154852;23;20403;-65
2024/03/05 09:33:31;;;;;;;21.17;12.53;;;16.50;86.00;;;;;;6154625;23;20426;-63
2024/03/05 09:35:59;;;;;;;23.03;10.90;;;15.60;87.70;;;;;;6155068;23;20403;-64
2024/03/05 09:38:26;;;;;;;15.00;10.17;;;14.60;90.20;;;;;;6154488;23;20726;-67
2024/03/05 09:40:54;;;;;;;14.10;9.90;;;13.90;92.10;;;;;;6154174;23;20477;-66
2024/03/05 09:43:23;;;;;;;16.13;10.47;;;13.20;93.70;;;;;;6153880;23;20928;-64
2024/03/05 09:45:51;;;;;;;15.53;9.87;;;12.60;95.70;;;;;;6155527;23;20410;-65
2024/03/05 09:48:22;;;;;;;17.07;9.70;;;12.50;98.30;;;;;;6156144;23;20402;-64
2024/03/05 09:50:49;;;;;;;16.03;9.73;;;13.00;98.30;;;;;;6154191;23;20398;-66
2024/03/05 09:53:18;;;;;;;15.00;9.23;;;14.20;97.40;;;;;;6153380;23;20430;-64
2024/03/05 09:55:45;;;;;;;13.60;7.77;;;14.50;96.20;;;;;;6154551;23;20441;-64
2024/03/05 09:58:14;;;;;;;12.80;9.93;;;15.30;94.00;;;;;;6154362;23;20460;-64
2024/03/05 10:00:43;;;;;;;14.17;10.47;;;16.10;92.80;;;;;;6154390;23;20517;-64
2024/03/05 10:03:09;;;;;;;17.77;8.77;;;16.70;90.70;;;;;;6153836;23;20449;-63
2024/03/05 10:05:38;;;;;;;11.67;8.37;;;17.40;87.90;;;;;;6153202;23;20735;-64
2024/03/05 10:08:06;;;;;;;20.83;9.00;;;17.90;81.10;;;;;;6154382;23;20406;-65
2024/03/05 10:10:33;;;;;;;12.60;9.30;;;18.20;77.70;;;;;;6154100;23;20948;-65
2024/03/05 10:13:02;;;;;;;14.83;8.63;;;18.60;75.10;;;;;;6153498;23;20517;-64
2024/03/05 10:15:29;;;;;;;13.17;8.63;;;18.70;74.10;;;;;;6154569;23;20406;-64
2024/03/05 10:17:57;;;;;;;13.77;9.30;;;18.90;72.70;;;;;;6154532;23;20402;-63
2024/03/05 10:20:28;;;;;;;13.23;7.60;;;19.00;70.90;;;;;;6153607;23;20434;-65
2024/03/05 10:22:59;;;;;;;13.57;8.43;;;18.80;68.60;;;;;;6154023;23;20431;-67
2024/03/05 10:25:27;;;;;;;16.70;8.47;;;18.40;69.70;;;;;;6153495;23;20418;-65
2024/03/05 10:27:55;;;;;;;15.13;9.43;;;18.10;69.40;;;;;;6154557;23;20407;-64
2024/03/05 10:30:22;;;;;;;16.17;8.87;;;18.10;69.90;;;;;;6154837;23;20465;-63
2024/03/05 10:32:53;;;;;;;13.73;9.30;;;17.50;70.30;;;;;;6154001;23;20422;-61
2024/03/05 10:35:22;;;;;;;13.83;9.50;;;16.50;71.30;;;;;;6154803;23;20696;-61
2024/03/05 10:38:00;;;;;;;15.10;9.90;;;15.50;73.90;;;;;;6154866;23;20430;-63
2024/03/05 10:40:31;;;;;;;18.70;10.90;;;14.40;77.50;;;;;;6154045;23;20407;-62
2024/03/05 10:43:01;;;;;;;18.30;9.97;;;13.40;82.00;;;;;;6155100;23;20469;-62
2024/03/05 10:45:28;;;;;;;17.70;10.20;;;12.60;85.10;;;;;;6155690;23;20410;-64
2024/03/05 10:47:58;;;;;;;12.43;8.13;;;12.00;88.30;;;;;;6154461;23;20398;-65
2024/03/05 10:50:27;;;;;;;16.17;8.47;;;12.10;91.30;;;;;;6154264;23;20410;-64
2024/03/05 10:52:55;;;;;;;23.23;7.07;;;12.60;90.70;;;;;;6154156;23;20422;-63
2024/03/05 10:55:23;;;;;;;16.83;7.20;;;12.50;89.80;;;;;;6154100;23;20953;-63
2024/03/05 11:00:36;;;;;;;15.30;8.23;;;11.80;90.80;;;;;;6154185;23;20374;-63
2024/03/05 11:03:05;;;;;;;12.53;6.20;;;11.80;91.70;;;;;;6153175;23;20430;-66
2024/03/05 11:05:39;;;;;;;14.23;5.47;;;11.80;91.00;;;;;;6153227;23;20406;-63
2024/03/05 11:08:12;;;;;;;10.57;6.47;;;11.60;90.60;;;;;;6153984;23;20390;-63
2024/03/05 11:10:42;;;;;;;16.10;5.63;;;11.20;91.10;;;;;;6153748;23;20394;-62
2024/03/05 11:13:12;;;;;;;8.93;5.80;;;11.00;91.50;;;;;;6153649;23;20457;-63
2024/03/05 11:15:39;;;;;;;10.60;6.57;;;10.80;91.90;;;;;;6153944;23;20398;-61
2024/03/05 11:18:26;;;;;;;9.90;5.30;;;10.80;93.00;;;;;;6154054;23;20489;-61
2024/03/05 11:20:55;;;;;;;16.80;5.57;;;10.70;93.00;;;;;;6154913;23;20457;-63
2024/03/05 11:23:26;;;;;;;9.37;5.90;;;10.70;93.30;;;;;;6154633;23;20426;-62
2024/03/05 11:25:53;;;;;;;9.23;4.83;;;10.70;92.10;;;;;;6155204;23;20477;-50
2024/03/05 11:28:21;;;;;;;10.20;4.67;;;10.60;92.10;;;;;;6156174;23;20406;-55
2024/03/05 11:30:48;;;;;;;9.13;5.43;;;10.50;91.50;;;;;;6155588;23;20472;-53
2024/03/05 11:33:18;;;;;;;7.47;4.27;;;10.40;92.50;;;;;;6155193;23;20992;-57
2024/03/05 11:35:46;;;;;;;10.47;6.00;;;10.30;92.40;;;;;;6156113;23;20434;-52
2024/03/05 11:38:18;;;;;;;12.00;7.23;;;10.10;93.30;;;;;;6155769;23;20839;-51
2024/03/05 11:40:48;;;;;;;11.03;6.20;;;10.00;94.70;;;;;;6155245;23;20391;-49
2024/03/05 11:43:35;;;;;;;8.50;5.80;;;9.90;95.80;;;;;;6155139;23;20426;-56
2024/03/05 11:46:02;;;;;;;8.00;5.10;;;9.80;96.40;;;;;;6155429;23;20777;-52
2024/03/05 11:48:29;;;;;;;10.17;5.47;;;9.80;96.60;;;;;;6155455;23;20828;-54
2024/03/05 11:50:56;;;;;;;7.90;5.97;;;9.70;96.50;;;;;;6156258;23;20440;-53
2024/03/05 11:53:24;;;;;;;12.40;5.40;;;9.80;96.60;;;;;;6155443;23;20796;-55
2024/03/05 11:55:52;;;;;;;13.77;4.90;;;9.90;95.90;;;;;;6156745;23;20963;-57
2024/03/05 11:58:24;;;;;;;10.17;5.80;;;9.90;95.10;;;;;;6155635;23;20402;-57
2024/03/05 12:00:59;;;;;;;12.43;5.40;;;10.10;95.00;;;;;;6155698;23;20378;-60
2024/03/05 12:03:27;;;;;;;12.37;4.80;;;10.30;95.30;;;;;;6154891;23;20496;-53
2024/03/05 12:05:55;;;;;;;12.40;6.50;;;10.70;94.80;;;;;;6154597;23;20412;-52
2024/03/05 12:08:24;;;;;;;13.30;5.50;;;10.70;94.30;;;;;;6155657;23;20412;-55
2024/03/05 12:10:52;;;;;;;14.70;5.93;;;10.60;94.70;;;;;;6154874;23;20406;-54
2024/03/05 12:13:20;;;;;;;16.57;7.30;;;10.60;94.90;;;;;;6153868;23;20433;-56
2024/03/05 12:15:47;;;;;;;6.70;5.00;;;10.40;95.50;;;;;;6155688;23;20468;-53
2024/03/05 12:18:14;;;;;;;13.45;6.30;;;10.30;95.90;;;;;;6154634;23;20491;-62
2024/03/05 12:20:42;;;;;;;9.63;6.00;;;10.20;96.50;;;;;;6155631;23;20446;-62
2024/03/05 12:23:09;;;;;;;13.47;6.60;;;10.20;96.80;;;;;;6155290;23;20530;-62
2024/03/05 12:25:37;;;;;;;10.63;7.13;;;10.10;96.90;;;;;;6154124;23;20433;-64
2024/03/05 12:28:06;;;;;;;10.77;5.87;;;10.00;97.00;;;;;;6155646;23;20437;-63
2024/03/05 12:30:34;;;;;;;14.50;5.73;;;10.00;96.50;;;;;;6156407;23;20438;-62
2024/03/05 12:33:01;;;;;;;12.53;6.87;;;10.00;95.40;;;;;;6155773;23;20418;-61
2024/03/05 12:35:29;;;;;;;11.53;5.00;;;9.90;95.10;;;;;;6153660;23;20947;-63
2024/03/05 12:37:57;;;;;;;12.43;5.10;;;9.90;94.80;;;;;;6154810;23;20402;-63
2024/03/05 12:40:28;;;;;;;9.13;5.00;;;9.90;94.80;;;;;;6154929;23;20486;-61
2024/03/05 12:43:06;;;;;;;16.40;5.40;;;9.90;94.70;;;;;;6155133;23;20770;-63
2024/03/05 12:45:34;;;;;;;9.07;4.90;;;9.90;95.30;;;;;;6155216;23;20418;-62
2024/03/05 12:48:02;;;;;;;7.87;5.20;;;10.00;95.50;;;;;;6155575;23;20406;-62
2024/03/05 12:50:30;;;;;;;11.40;5.63;;;10.10;95.90;;;;;;6155201;23;20402;-62